To NAV CANADA Home Page Login to a new session Search on AWWS site Feedback and Comments Disclaimer Vers la page française équivalente Tips FAQ What's new on the site To the Forecasts and Observations / NOTAM section To "File a Flight Plan" website Publications and other links Update of the User's profile FIC Telephone Numbers My Weather Data Folder Route Weather Data Regional Weather Data Local Weather Data To the Forecasts and Observations / NOTAM section
Request Generated 06/26/2017 at 22:25:57 UTC . Weather information available at that time is displayed.

METAR/TAF

BRANDON MUNICIPALITY/MB    

METAR CYBR 262200Z 28007KT 15SM BKN250 21/09 A3008 RMK CI6 SLP197
DENSITY ALT 2300FT=
METAR CYBR 262100Z 25009KT 210V270 15SM SCT250 22/05 A3011 RMK CI4
SLP207 DENSITY ALT 2200FT=
METAR CYBR 262000Z 24004KT 170V320 15SM FEW060 SCT250 22/05 A3012 RMK
CU1CI3 CU TR SLP212 DENSITY ALT 2200FT=

TAF CYBR 261738Z 2618/2706 27010KT P6SM FEW060
BECMG 2620/2622 23010KT
FM270200 18010KT P6SM SKC
RMK NXT FCST BY 270000Z=
Your time UTC time
Weather data provided by Environment Canada and NAV CANADA